Time;durP1;ratioP1;P1;durP2;ratioP2;P2;SDS_P1;SDS_P2;PMS_P1;PMS_P2;Temp;Humidity;BMP_temperature;BMP_pressure;BME280_temperature;BME280_humidity;BME280_pressure;Samples;Min_cycle;Max_cycle;Signal;HPM_P1;HPM_P2
2022/03/10 00:00:11;;;;;;;5.40;2.83;;;0.30;83.50;;;-1.42;67.45;98393.25;173830;28;1786;-65
2022/03/10 00:00:19;;;;;;;6.18;2.95;;;0.30;83.40;;;-1.36;68.00;98390.25;173838;28;1199;-65
2022/03/10 00:00:26;;;;;;;7.03;3.11;;;0.20;83.50;;;-1.34;67.97;98398.91;173800;28;1030;-65
2022/03/10 00:00:32;;;;;;;7.22;3.25;;;0.20;83.70;;;-1.34;67.61;98398.91;174525;28;1009;-65
2022/03/10 00:00:38;;;;;;;7.38;3.28;;;0.20;83.90;;;-1.34;67.80;98393.63;172378;28;1491;-65
2022/03/10 00:00:44;;;;;;;7.10;3.20;;;0.20;83.90;;;-1.39;67.85;98382.50;172406;28;1925;-65
2022/03/10 00:00:49;;;;;;;7.78;3.30;;;0.20;84.00;;;-1.38;68.01;98392.13;173043;28;1433;-65
2022/03/10 00:00:55;;;;;;;7.97;3.40;;;0.20;84.10;;;-1.40;68.31;98381.63;172440;28;1352;-65
2022/03/10 00:01:01;;;;;;;8.30;3.45;;;0.20;84.10;;;-1.34;68.06;98399.75;171816;28;956;-65
2022/03/10 00:01:07;;;;;;;8.00;3.37;;;0.10;84.20;;;-1.37;68.07;98388.53;173095;28;1271;-65
2022/03/10 00:01:13;;;;;;;7.85;3.40;;;0.20;84.30;;;-1.28;67.99;98393.25;172438;28;1224;-65
2022/03/10 00:01:19;;;;;;;6.88;3.40;;;0.20;84.40;;;-1.26;67.94;98394.03;172497;28;1038;-65
2022/03/10 00:01:25;;;;;;;6.90;3.23;;;0.10;84.50;;;-1.25;67.95;98400.19;173190;28;1231;-65
2022/03/10 00:01:31;;;;;;;7.07;3.17;;;0.20;84.60;;;-1.26;68.17;98393.19;173262;28;950;-65
2022/03/10 00:01:37;;;;;;;6.72;3.10;;;0.10;84.60;;;-1.26;67.82;98396.69;173151;28;982;-65
2022/03/10 00:01:43;;;;;;;6.70;3.00;;;0.10;84.70;;;-1.22;67.58;98399.97;174560;28;1335;-65
2022/03/10 00:01:49;;;;;;;6.50;2.75;;;0.10;84.90;;;-1.22;67.21;98392.91;174479;28;1423;-65
2022/03/10 00:01:54;;;;;;;6.45;2.88;;;0.10;85.10;;;-1.24;67.45;98386.84;173773;28;1255;-65
2022/03/10 00:02:02;;;;;;;5.88;2.83;;;0.10;85.20;;;-1.19;67.76;98402.44;173946;28;946;-65
2022/03/10 00:02:09;;;;;;;7.17;2.90;;;0.10;85.30;;;-1.18;67.65;98397.06;173958;28;940;-65
2022/03/10 00:02:15;;;;;;;7.07;3.03;;;0.10;85.40;;;-1.21;67.65;98386.69;174608;28;840;-65
2022/03/10 00:02:21;;;;;;;7.32;3.08;;;0.10;85.40;;;-1.18;67.30;98391.78;173258;28;1095;-65
2022/03/10 00:02:27;;;;;;;7.07;2.90;;;0.10;85.50;;;-1.20;67.57;98393.69;172492;28;1054;-65
2022/03/10 00:02:33;;;;;;;6.95;3.00;;;0.10;85.50;;;-1.17;67.21;98397.91;171119;28;878;-65
2022/03/10 00:02:42;;;;;;;6.38;3.05;;;0.10;85.50;;;-1.18;67.10;98402.34;172419;28;1203;-65
2022/03/10 00:02:48;;;;;;;7.50;3.14;;;0.20;85.50;;;-1.18;67.14;98402.34;173221;28;1020;-65
2022/03/10 00:02:54;;;;;;;8.95;3.30;;;0.20;85.50;;;-1.26;67.34;98391.41;173207;28;855;-65
2022/03/10 00:03:00;;;;;;;8.48;3.17;;;0.20;85.50;;;-1.21;67.41;98396.41;173173;28;893;-65
2022/03/10 00:03:06;;;;;;;7.53;2.85;;;0.20;85.40;;;-1.22;67.35;98397.34;172441;28;2813;-65
2022/03/10 00:03:12;;;;;;;7.72;2.80;;;0.20;85.40;;;-1.21;67.59;98386.69;172476;28;1284;-65
2022/03/10 00:03:18;;;;;;;8.23;2.67;;;0.20;85.30;;;-1.24;67.92;98388.69;172653;28;1485;-65
2022/03/10 00:03:24;;;;;;;6.76;2.60;;;0.20;85.30;;;-1.18;68.34;98391.78;173139;28;1627;-65
2022/03/10 00:03:30;;;;;;;7.10;2.75;;;0.20;85.40;;;-1.19;68.11;98387.44;172483;28;1123;-65
2022/03/10 00:03:36;;;;;;;8.50;3.00;;;0.20;85.30;;;-1.16;67.95;98395.19;170899;28;1444;-65
2022/03/10 00:03:42;;;;;;;8.15;2.92;;;0.20;85.20;;;-1.21;67.99;98394.63;173053;28;1620;-65
2022/03/10 00:03:48;;;;;;;8.30;3.00;;;0.20;85.20;;;-1.18;67.87;98394.41;173028;28;1196;-65
2022/03/10 00:03:55;;;;;;;9.23;3.00;;;0.20;85.20;;;-1.16;67.72;98399.63;174610;28;847;-65
2022/03/10 00:04:01;;;;;;;10.14;3.06;;;0.20;85.20;;;-1.18;67.64;98394.41;175229;28;938;-65
2022/03/10 00:04:07;;;;;;;10.20;3.25;;;0.20;85.30;;;-1.24;67.55;98386.03;174214;28;1455;-65
2022/03/10 00:04:13;;;;;;;9.52;3.28;;;0.20;85.30;;;-1.20;67.34;98396.31;172481;28;1754;-65
2022/03/10 00:04:19;;;;;;;8.97;3.37;;;0.20;85.40;;;-1.17;67.13;98397.91;173816;28;991;-65
2022/03/10 00:04:24;;;;;;;8.68;3.47;;;0.20;85.50;;;-1.20;67.38;98391.03;173847;28;894;-65
2022/03/10 00:04:31;;;;;;;7.60;3.40;;;0.20;85.60;;;-1.24;67.30;98384.22;172434;28;884;-65
2022/03/10 00:04:37;;;;;;;7.80;3.37;;;0.20;85.70;;;-1.20;67.30;98393.69;173370;28;1542;-66
2022/03/10 00:04:43;;;;;;;8.42;3.32;;;0.10;85.80;;;-1.24;67.47;98384.22;173883;28;1037;-65
2022/03/10 00:04:49;;;;;;;8.50;3.30;;;0.10;85.80;;;-1.20;67.32;98396.31;173135;28;1178;-65
2022/03/10 00:04:55;;;;;;;8.10;3.08;;;0.10;85.90;;;-1.26;67.09;98388.75;172862;28;1550;-65
2022/03/10 00:05:03;;;;;;;8.17;3.10;;;0.10;86.00;;;-1.21;67.63;98391.97;173242;28;1002;-65
2022/03/10 00:05:13;;;;;;;7.70;3.14;;;0.10;86.20;;;-1.21;67.36;98397.25;173171;28;1120;-65
2022/03/10 00:05:19;;;;;;;7.23;3.07;;;0.10;86.30;;;-1.24;67.18;98392.13;172190;28;1570;-65
2022/03/10 00:05:24;;;;;;;7.15;3.10;;;0.10;86.40;;;-1.24;66.93;98391.31;172381;28;1334;-65
2022/03/10 00:05:31;;;;;;;7.43;3.20;;;0.10;86.50;;;-1.22;66.89;98392.06;173232;28;915;-65
2022/03/10 00:05:37;;;;;;;7.35;3.25;;;0.10;86.70;;;-1.20;66.82;98390.19;173170;28;1327;-65
2022/03/10 00:05:43;;;;;;;6.80;3.10;;;0.10;86.80;;;-1.17;66.80;98392.63;172571;28;956;-65
2022/03/10 00:05:49;;;;;;;6.45;3.08;;;0.10;86.90;;;-1.19;66.66;98389.25;172515;28;938;-65
2022/03/10 00:05:54;;;;;;;8.00;3.10;;;0.10;87.10;;;-1.16;66.92;98392.53;174003;28;1709;-65
2022/03/10 00:06:00;;;;;;;7.85;2.95;;;0.10;87.20;;;-1.19;66.78;98383.97;173781;28;1603;-65
2022/03/10 00:06:06;;;;;;;8.07;2.70;;;0.10;87.40;;;-1.15;66.92;98398.69;173104;28;1800;-65
2022/03/10 00:06:13;;;;;;;8.65;2.78;;;0.10;87.50;;;-1.14;66.81;98401.22;173125;28;1192;-65
2022/03/10 00:06:19;;;;;;;9.60;2.90;;;0.10;87.60;;;-1.14;66.81;98395.91;173231;28;848;-65
2022/03/10 00:06:24;;;;;;;8.27;2.92;;;0.10;87.70;;;-1.13;66.75;98394.13;172475;28;892;-65
2022/03/10 00:06:30;;;;;;;8.65;3.00;;;0.00;87.70;;;-1.15;66.90;98396.88;173139;28;994;-65
2022/03/10 00:06:36;;;;;;;7.78;3.08;;;0.10;87.90;;;-1.15;67.02;98396.88;173170;28;1374;-65
2022/03/10 00:06:42;;;;;;;8.45;3.13;;;0.00;87.80;;;-1.15;66.96;98396.88;171793;28;1335;-65
2022/03/10 00:06:48;;;;;;;8.68;3.28;;;0.00;87.90;;;-1.14;66.58;98397.75;173201;28;931;-65
2022/03/10 00:06:54;;;;;;;8.77;3.40;;;0.00;88.00;;;-1.17;66.59;98396.13;173234;28;1044;-65
2022/03/10 00:07:02;;;;;;;8.30;3.40;;;0.00;88.00;;;-1.26;66.33;98386.13;173754;28;1419;-65
2022/03/10 00:07:08;;;;;;;8.07;3.30;;;0.00;87.90;;;-1.24;66.33;98400.06;173770;28;1516;-65
2022/03/10 00:07:14;;;;;;;6.63;3.28;;;0.10;87.90;;;-1.29;66.27;98388.91;173194;28;949;-65
2022/03/10 00:07:20;;;;;;;6.88;3.08;;;0.00;87.70;;;-1.30;66.43;98393.38;173182;28;931;-65
2022/03/10 00:07:26;;;;;;;6.82;2.97;;;0.00;87.70;;;-1.26;66.17;98401.13;171829;28;860;-65
2022/03/10 00:07:32;;;;;;;6.63;2.97;;;0.10;87.80;;;-1.26;66.66;98390.53;171856;28;924;-65
2022/03/10 00:07:38;;;;;;;6.67;2.90;;;0.00;87.80;;;-1.23;66.51;98406.19;172986;28;1834;-65
2022/03/10 00:07:45;;;;;;;6.96;2.90;;;0.00;87.80;;;-1.28;66.70;98390.63;172495;28;860;-65
2022/03/10 00:07:51;;;;;;;5.78;2.80;;;0.00;87.90;;;-1.23;66.79;98403.56;172484;28;1361;-65
2022/03/10 00:07:56;;;;;;;5.60;2.75;;;0.00;88.00;;;-1.24;66.93;98392.13;172574;28;1636;-65
2022/03/10 00:08:03;;;;;;;5.43;2.72;;;0.00;88.00;;;-1.24;66.70;98391.31;171864;28;867;-65
2022/03/10 00:08:08;;;;;;;5.30;2.83;;;0.00;87.90;;;-1.26;66.30;98401.13;171604;28;1834;-65
2022/03/10 00:08:14;;;;;;;5.28;2.80;;;0.00;87.90;;;-1.24;66.36;98400.06;172340;28;999;-65
2022/03/10 00:08:20;;;;;;;6.00;2.97;;;0.00;87.80;;;-1.26;66.60;98399.31;172497;28;851;-65
2022/03/10 00:08:26;;;;;;;6.38;3.00;;;0.00;87.70;;;-1.25;66.89;98401.03;171837;28;951;-65
2022/03/10 00:08:32;;;;;;;6.65;2.95;;;0.00;87.70;;;-1.25;66.83;98400.19;171781;28;930;-65
2022/03/10 00:08:38;;;;;;;6.70;2.90;;;0.00;87.60;;;-1.26;66.84;98401.13;171787;28;954;-65
2022/03/10 00:08:44;;;;;;;6.75;3.05;;;0.10;87.60;;;-1.29;66.28;98394.19;171815;28;1046;-65
2022/03/10 00:08:50;;;;;;;6.43;3.20;;;0.10;87.50;;;-1.30;66.29;98400.44;171820;28;1067;-65
2022/03/10 00:08:57;;;;;;;5.97;3.15;;;0.10;87.40;;;-1.34;66.65;98394.47;172333;28;1210;-65
2022/03/10 00:09:03;;;;;;;6.70;3.10;;;0.10;87.30;;;-1.34;66.38;98391.00;172522;28;997;-65
2022/03/10 00:09:09;;;;;;;6.62;3.00;;;0.10;87.20;;;-1.31;66.58;98398.75;172134;28;1658;-65
2022/03/10 00:09:14;;;;;;;6.47;2.77;;;0.10;87.10;;;-1.33;66.79;98405.91;172322;28;1836;-65
2022/03/10 00:09:20;;;;;;;6.30;2.53;;;0.10;87.00;;;-1.36;66.64;98392.88;172505;28;915;-65
2022/03/10 00:09:26;;;;;;;6.43;2.53;;;0.10;86.90;;;-1.35;66.53;98397.25;173746;28;1081;-65
2022/03/10 00:09:34;;;;;;;6.72;2.70;;;0.10;86.90;;;-1.36;66.49;98400.81;173919;28;938;-65
2022/03/10 00:09:40;;;;;;;7.34;2.82;;;0.10;86.80;;;-1.35;66.56;98402.53;174245;28;1637;-65
2022/03/10 00:09:47;;;;;;;7.48;2.90;;;0.10;86.70;;;-1.37;66.99;98401.75;174403;28;1358;-65
2022/03/10 00:09:53;;;;;;;8.37;3.20;;;0.10;86.50;;;-1.39;66.87;98393.06;173903;28;930;-65
2022/03/10 00:09:59;;;;;;;7.57;3.15;;;0.10;86.50;;;-1.41;67.22;98397.59;173879;28;875;-65
2022/03/10 00:10:06;;;;;;;6.80;3.05;;;0.10;86.40;;;-1.48;66.96;98383.03;172445;28;1230;-65
2022/03/10 00:10:12;;;;;;;6.36;2.96;;;0.10;86.40;;;-1.41;66.98;98400.25;173701;28;1822;-65
2022/03/10 00:10:18;;;;;;;6.15;2.90;;;0.10;86.50;;;-1.45;67.49;98383.69;173214;28;1077;-65
2022/03/10 00:10:24;;;;;;;5.35;2.70;;;0.10;86.50;;;-1.44;67.68;98395.13;172547;28;915;-65
2022/03/10 00:10:30;;;;;;;5.57;2.58;;;0.10;86.70;;;-1.40;67.33;98401.94;171086;28;852;-65
2022/03/10 00:10:36;;;;;;;6.18;2.53;;;0.10;86.80;;;-1.40;66.93;98402.75;171773;28;903;-65
2022/03/10 00:10:42;;;;;;;7.00;2.70;;;0.10;86.90;;;-1.39;67.19;98396.53;172510;28;911;-65
2022/03/10 00:10:47;;;;;;;6.93;2.70;;;0.10;87.00;;;-1.38;67.19;98394.75;172469;28;824;-65
2022/03/10 00:10:53;;;;;;;7.20;2.83;;;0.10;87.10;;;-1.39;67.34;98399.19;173120;28;1307;-65
2022/03/10 00:10:59;;;;;;;7.10;3.00;;;0.10;87.10;;;-1.39;67.08;98404.47;173182;28;955;-65
2022/03/10 00:11:06;;;;;;;7.13;3.28;;;0.10;87.20;;;-1.40;67.35;98402.75;173209;28;986;-65
2022/03/10 00:11:12;;;;;;;6.70;3.30;;;0.10;87.20;;;-1.39;67.34;98403.63;172444;28;1165;-65
2022/03/10 00:11:18;;;;;;;6.90;3.25;;;0.10;87.90;;;-1.40;67.16;98391.38;171739;28;1317;-65
2022/03/10 00:11:24;;;;;;;6.43;3.08;;;0.10;87.30;;;-1.38;66.79;98400.91;172491;28;872;-65
2022/03/10 00:11:30;;;;;;;6.75;2.97;;;0.10;87.40;;;-1.39;67.00;98393.06;171180;28;1130;-65
2022/03/10 00:11:36;;;;;;;7.38;2.88;;;0.10;87.40;;;-1.36;67.27;98404.31;171088;28;1355;-65
2022/03/10 00:11:41;;;;;;;8.02;3.05;;;0.10;87.50;;;-1.36;67.23;98399.03;172571;28;911;-65
2022/03/10 00:11:47;;;;;;;9.07;3.10;;;0.10;87.60;;;-1.36;67.27;98401.66;172520;28;897;-65
2022/03/10 00:11:53;;;;;;;11.18;3.30;;;0.10;87.60;;;-1.33;67.24;98400.63;172543;28;903;-65
2022/03/10 00:12:01;;;;;;;11.43;3.40;;;0.00;87.60;;;-1.37;67.15;98397.31;172475;28;1377;-65
2022/03/10 00:12:07;;;;;;;10.02;3.28;;;0.10;87.70;;;-1.34;66.98;98391.84;171840;28;1164;-65
2022/03/10 00:12:13;;;;;;;9.17;3.10;;;0.10;87.80;;;-1.31;66.84;98404.03;171812;28;971;-65
2022/03/10 00:12:19;;;;;;;7.32;3.05;;;0.00;87.90;;;-1.30;66.93;98406.59;171708;28;1346;-65
2022/03/10 00:12:25;;;;;;;6.17;2.83;;;0.00;88.00;;;-1.32;67.18;98391.75;170541;29;849;-65
2022/03/10 00:12:31;;;;;;;5.63;2.80;;;0.00;88.10;;;-1.34;67.06;98391.00;170488;28;1573;-65
2022/03/10 00:12:38;;;;;;;5.53;2.80;;;0.00;88.20;;;-1.29;66.93;98397.69;172049;28;1933;-65
2022/03/10 00:12:53;;;;;;;5.52;2.76;;;0.00;88.20;;;-1.32;67.32;98394.41;173082;28;1523;-65
2022/03/10 00:12:59;;;;;;;5.79;2.83;;;0.00;88.40;;;-1.33;67.37;98400.63;174531;28;1212;-65
2022/03/10 00:13:05;;;;;;;6.07;2.92;;;0.00;88.40;;;-1.28;67.57;98403.84;171733;28;2922;-65
2022/03/10 00:13:11;;;;;;;6.57;3.03;;;0.00;88.50;;;-1.33;67.68;98390.06;172313;28;1018;-65
2022/03/10 00:13:16;;;;;;;6.35;2.95;;;0.00;88.50;;;-1.29;67.54;98410.06;173848;28;982;-65
2022/03/10 00:13:26;;;;;;;6.13;3.03;;;0.00;88.50;;;-1.33;67.10;98400.63;173113;28;816;-65
2022/03/10 00:13:32;;;;;;;7.00;3.29;;;0.00;88.50;;;-1.35;66.85;98400.69;173708;28;1517;-65
2022/03/10 00:13:38;;;;;;;7.05;3.30;;;0.00;88.40;;;-1.38;66.23;98400.91;173749;28;1423;-65
2022/03/10 00:13:45;;;;;;;7.13;3.28;;;0.00;88.40;;;-1.45;65.97;98394.25;172274;28;1649;-65
2022/03/10 00:13:51;;;;;;;7.77;3.17;;;0.00;88.20;;;-1.44;66.46;98406.53;171861;28;1014;-65
2022/03/10 00:13:57;;;;;;;7.38;3.05;;;0.00;88.00;;;-1.53;65.89;98398.31;172390;28;1234;-68
2022/03/10 00:14:03;;;;;;;7.18;2.83;;;0.00;87.80;;;-1.51;66.88;98399.94;171746;28;1576;-65
2022/03/10 00:14:10;;;;;;;7.55;2.90;;;0.10;87.60;;;-1.52;67.30;98402.66;172629;28;1976;-66
2022/03/10 00:14:16;;;;;;;7.53;3.10;;;0.10;87.50;;;-1.53;67.36;98406.22;173072;28;923;-65
2022/03/10 00:14:22;;;;;;;6.80;3.20;;;0.10;87.20;;;-1.59;67.53;98391.59;173714;28;1171;-65
2022/03/10 00:14:29;;;;;;;6.86;3.20;;;0.10;86.90;;;-1.53;67.63;98404.44;173174;28;1132;-65
2022/03/10 00:14:35;;;;;;;6.30;3.08;;;0.10;86.60;;;-1.53;67.32;98395.66;173802;28;887;-65
2022/03/10 00:14:41;;;;;;;5.65;2.95;;;0.10;86.40;;;-1.58;67.76;98377.47;173803;28;1002;-65
2022/03/10 00:14:47;;;;;;;5.43;2.87;;;0.10;86.30;;;-1.46;67.80;98399.66;173919;28;868;-65
2022/03/10 00:14:53;;;;;;;5.18;2.80;;;0.10;86.20;;;-1.47;67.46;98398.81;173778;28;1290;-65
2022/03/10 00:14:59;;;;;;;5.82;2.80;;;0.10;86.10;;;-1.54;67.23;98393.97;173704;28;1297;-65
2022/03/10 00:15:10;;;;;;;6.55;2.88;;;0.10;86.10;;;-1.47;67.56;98400.59;173642;28;1151;-65
2022/03/10 00:15:18;;;;;;;8.18;2.93;;;0.10;85.90;;;-1.52;67.54;98394.72;172454;28;1209;-65
2022/03/10 00:15:24;;;;;;;8.62;3.00;;;0.10;85.70;;;-1.50;67.15;98406.06;173800;28;944;-65
2022/03/10 00:15:30;;;;;;;7.70;2.83;;;0.10;85.60;;;-1.54;67.80;98396.59;174466;28;1361;-65
2022/03/10 00:15:37;;;;;;;7.18;2.80;;;0.10;85.60;;;-1.50;67.93;98400.78;173075;28;1822;-65
2022/03/10 00:15:43;;;;;;;5.74;2.80;;;0.10;85.50;;;-1.52;68.23;98403.50;173159;28;942;-65
2022/03/10 00:15:49;;;;;;;5.53;2.67;;;0.00;85.40;;;-1.52;68.01;98405.28;173126;28;1398;-65
2022/03/10 00:15:55;;;;;;;6.17;2.70;;;0.10;85.40;;;-1.54;68.42;98404.53;173098;28;1617;-65
2022/03/10 00:16:01;;;;;;;6.25;2.78;;;0.00;85.30;;;-1.55;68.69;98408.94;173196;28;1636;-65
2022/03/10 00:16:07;;;;;;;6.78;2.88;;;0.10;85.20;;;-1.55;68.06;98408.09;172954;28;1528;-65
2022/03/10 00:16:13;;;;;;;6.82;3.03;;;0.10;85.20;;;-1.61;67.88;98397.91;173211;28;1045;-65
2022/03/10 00:16:19;;;;;;;7.32;3.13;;;0.10;85.10;;;-1.60;67.96;98395.16;172487;28;1190;-65
2022/03/10 00:16:25;;;;;;;8.55;3.17;;;0.00;85.00;;;-1.60;67.87;98395.16;173073;28;1227;-65
2022/03/10 00:16:31;;;;;;;8.37;3.20;;;0.00;84.90;;;-1.63;67.97;98391.88;174509;28;1181;-65
2022/03/10 00:16:38;;;;;;;7.83;3.10;;;0.10;84.80;;;-1.59;67.89;98401.31;174447;28;1967;-65
2022/03/10 00:16:44;;;;;;;7.72;2.98;;;0.00;84.70;;;-1.62;67.60;98401.50;173079;28;1481;-65
2022/03/10 00:16:50;;;;;;;6.45;2.83;;;0.00;84.60;;;-1.62;67.86;98402.34;172540;28;808;-65
2022/03/10 00:16:56;;;;;;;5.55;2.75;;;0.00;84.50;;;-1.65;67.46;98407.78;172485;28;940;-65
2022/03/10 00:17:02;;;;;;;5.82;2.82;;;0.00;84.40;;;-1.62;68.19;98404.97;173793;28;1295;-65
2022/03/10 00:17:08;;;;;;;6.20;2.88;;;0.10;84.50;;;-1.64;68.79;98398.09;172454;28;1319;-65
2022/03/10 00:17:14;;;;;;;6.32;2.92;;;0.10;84.50;;;-1.62;68.70;98398.84;173182;28;983;-65
2022/03/10 00:17:20;;;;;;;6.95;3.15;;;0.00;84.50;;;-1.61;68.63;98403.19;173741;28;1429;-65
2022/03/10 00:17:26;;;;;;;6.60;3.20;;;0.00;84.50;;;-1.61;68.65;98406.69;172488;28;785;-65
2022/03/10 00:17:32;;;;;;;6.97;3.30;;;0.10;84.50;;;-1.67;68.18;98398.28;172925;28;1396;-65
2022/03/10 00:17:38;;;;;;;6.85;3.22;;;0.00;84.50;;;-1.66;68.00;98398.19;172389;28;1908;-65
2022/03/10 00:17:44;;;;;;;6.80;3.20;;;0.10;84.50;;;-1.58;67.95;98408.28;172496;28;908;-65
2022/03/10 00:17:52;;;;;;;6.50;3.05;;;0.00;84.50;;;-1.58;68.38;98403.84;172552;28;963;-65
2022/03/10 00:18:02;;;;;;;6.83;2.87;;;0.00;84.60;;;-1.62;68.69;98391.78;171684;28;1254;-65
2022/03/10 00:18:08;;;;;;;7.31;2.76;;;0.00;84.70;;;-1.59;68.85;98396.03;173105;28;1165;-65
2022/03/10 00:18:13;;;;;;;8.23;2.72;;;0.10;85.00;;;-1.58;68.75;98397.72;173245;28;800;-65
2022/03/10 00:18:19;;;;;;;8.65;2.90;;;0.10;85.00;;;-1.60;69.10;98394.31;172593;28;1593;-65
2022/03/10 00:18:26;;;;;;;9.18;3.00;;;0.00;85.00;;;-1.61;68.94;98387.34;170977;28;1518;-65
2022/03/10 00:18:31;;;;;;;8.33;3.00;;;0.00;85.00;;;-1.57;68.69;98407.34;173179;28;851;-65
2022/03/10 00:18:37;;;;;;;9.10;3.17;;;0.00;84.90;;;-1.60;68.36;98403.09;173880;28;876;-65
2022/03/10 00:18:43;;;;;;;8.07;3.10;;;0.00;84.90;;;-1.62;68.48;98402.34;175243;28;962;-65
2022/03/10 00:18:49;;;;;;;7.53;3.00;;;0.00;84.80;;;-1.60;68.70;98407.50;174551;28;934;-65
2022/03/10 00:18:55;;;;;;;6.82;2.95;;;0.00;84.80;;;-1.61;68.96;98403.19;173271;28;880;-65
2022/03/10 00:19:01;;;;;;;6.10;3.03;;;0.00;84.80;;;-1.59;68.88;98402.16;173873;28;1041;-65
2022/03/10 00:19:07;;;;;;;5.55;2.92;;;0.00;84.80;;;-1.60;68.69;98400.44;172704;28;2868;-65
2022/03/10 00:19:14;;;;;;;5.78;2.90;;;0.10;84.80;;;-1.63;68.20;98400.63;173063;28;954;-66
2022/03/10 00:19:20;;;;;;;6.37;2.90;;;0.10;84.80;;;-1.64;67.39;98406.84;173677;28;1728;-65
2022/03/10 00:19:26;;;;;;;6.40;2.90;;;0.10;84.70;;;-1.66;66.72;98400.81;172364;28;1530;-65
2022/03/10 00:19:32;;;;;;;6.80;2.83;;;0.10;84.60;;;-1.66;66.67;98406.09;171196;28;1082;-65
2022/03/10 00:19:38;;;;;;;6.80;2.90;;;0.10;84.50;;;-1.66;67.41;98405.25;172429;28;1181;-65
2022/03/10 00:19:44;;;;;;;6.88;3.00;;;0.10;84.40;;;-1.73;67.65;98400.31;172549;28;891;-65
2022/03/10 00:19:50;;;;;;;6.63;3.10;;;0.10;84.30;;;-1.69;68.02;98406.28;173090;28;844;-65
2022/03/10 00:19:55;;;;;;;6.30;3.00;;;0.10;84.20;;;-1.68;67.89;98405.34;172078;28;2056;-65
2022/03/10 00:20:03;;;;;;;6.13;3.10;;;0.10;84.20;;;-1.68;68.18;98407.13;172463;28;848;-65
2022/03/10 00:20:10;;;;;;;6.03;3.03;;;0.10;84.20;;;-1.66;68.04;98400.81;171733;28;1419;-65
2022/03/10 00:20:16;;;;;;;5.63;2.97;;;0.10;84.10;;;-1.66;67.96;98407.91;171045;28;1407;-65
2022/03/10 00:20:23;;;;;;;5.55;2.92;;;0.10;84.00;;;-1.75;67.98;98403.97;171065;28;930;-65
2022/03/10 00:20:29;;;;;;;5.77;2.80;;;0.10;83.80;;;-1.77;68.01;98406.72;172545;28;1344;-65
2022/03/10 00:20:34;;;;;;;6.78;2.85;;;0.10;83.70;;;-1.77;68.46;98400.59;173730;28;1256;-65
2022/03/10 00:20:40;;;;;;;6.28;2.80;;;0.10;83.70;;;-1.74;68.82;98395.13;171874;28;975;-65
2022/03/10 00:20:46;;;;;;;6.70;2.78;;;0.10;83.60;;;-1.73;69.00;98402.13;172436;28;871;-65
2022/03/10 00:20:52;;;;;;;6.72;2.72;;;0.10;83.60;;;-1.76;69.39;98397.84;173226;28;1201;-65
2022/03/10 00:20:58;;;;;;;6.97;2.70;;;0.10;83.60;;;-1.73;69.34;98396.84;172678;28;1219;-65
2022/03/10 00:21:04;;;;;;;6.20;2.70;;;0.10;83.70;;;-1.68;69.46;98407.97;171734;28;1221;-65
2022/03/10 00:21:10;;;;;;;6.80;2.80;;;0.10;83.70;;;-1.67;69.78;98401.75;172446;28;999;-65
2022/03/10 00:21:16;;;;;;;6.47;2.80;;;0.10;83.90;;;-1.68;69.73;98394.78;173095;28;1263;-65
2022/03/10 00:21:22;;;;;;;6.78;2.80;;;0.10;84.00;;;-1.66;69.84;98408.75;172548;28;954;-65
2022/03/10 00:21:28;;;;;;;6.43;2.78;;;0.10;84.00;;;-1.65;69.23;98401.66;173060;28;1180;-65
2022/03/10 00:21:34;;;;;;;6.95;2.85;;;0.10;84.10;;;-1.64;69.21;98404.22;171706;28;1244;-65
2022/03/10 00:21:40;;;;;;;7.35;2.78;;;0.10;84.20;;;-1.65;69.16;98404.28;171880;28;1061;-65
2022/03/10 00:21:48;;;;;;;8.38;2.80;;;0.10;84.40;;;-1.62;68.58;98402.34;171803;28;931;-65
2022/03/10 00:21:54;;;;;;;8.85;2.78;;;0.00;84.60;;;-1.65;68.49;98399.00;171657;28;1577;-65
2022/03/10 00:22:01;;;;;;;8.64;2.76;;;0.00;84.90;;;-1.60;68.61;98410.16;172479;28;935;-65
2022/03/10 00:22:11;;;;;;;8.03;2.70;;;0.00;85.10;;;-1.64;68.27;98401.56;172536;28;868;-65
2022/03/10 00:22:17;;;;;;;6.63;2.73;;;0.00;85.20;;;-1.63;68.55;98410.34;173213;28;923;-65
2022/03/10 00:22:23;;;;;;;7.13;2.95;;;0.00;85.50;;;-1.59;68.22;98417.13;173745;28;1490;-65
2022/03/10 00:22:29;;;;;;;7.95;3.15;;;0.00;85.70;;;-1.60;68.11;98412.78;174551;28;1009;-65
2022/03/10 00:22:46;;;;;;;8.10;3.20;;;0.00;85.90;;;-1.59;68.85;98407.44;173164;28;958;-65
2022/03/10 00:22:55;;;;;;;7.80;3.20;;;0.00;86.30;;;-1.62;68.35;98409.41;173148;28;1195;-65
2022/03/10 00:23:01;;;;;;;6.91;3.03;;;-0.10;86.50;;;-1.60;68.08;98405.72;173148;28;1302;-65
2022/03/10 00:23:07;;;;;;;7.30;3.13;;;-0.10;86.60;;;-1.60;68.37;98411.00;172408;28;1406;-65
2022/03/10 00:23:13;;;;;;;7.13;3.10;;;-0.10;86.60;;;-1.60;67.76;98404.88;173878;28;924;-65
2022/03/10 00:23:19;;;;;;;7.63;3.00;;;0.00;86.70;;;-1.60;67.85;98410.16;173852;28;1002;-66
2022/03/10 00:23:25;;;;;;;8.60;3.05;;;-0.10;86.60;;;-1.63;67.61;98410.34;172435;28;915;-65
2022/03/10 00:23:30;;;;;;;8.15;2.90;;;-0.10;86.60;;;-1.73;67.46;98405.59;173533;28;1974;-65
2022/03/10 00:23:37;;;;;;;7.60;2.80;;;0.00;86.60;;;-1.73;67.36;98413.53;173209;28;840;-65
2022/03/10 00:23:42;;;;;;;7.48;2.80;;;0.00;86.50;;;-1.74;67.80;98409.19;172274;28;1657;-65
2022/03/10 00:23:48;;;;;;;7.13;2.90;;;-0.10;86.30;;;-1.74;68.36;98403.03;172480;28;1346;-66
2022/03/10 00:23:54;;;;;;;6.65;2.90;;;0.00;86.30;;;-1.78;68.59;98399.75;173159;28;938;-65
2022/03/10 00:24:00;;;;;;;6.25;2.90;;;0.00;86.20;;;-1.72;68.56;98412.59;173080;28;1550;-65
2022/03/10 00:24:06;;;;;;;6.78;2.80;;;0.00;86.10;;;-1.74;68.93;98401.25;173096;28;1392;-65
2022/03/10 00:24:14;;;;;;;7.03;2.80;;;0.00;86.00;;;-1.72;69.00;98407.31;172453;28;1058;-65
2022/03/10 00:24:20;;;;;;;7.78;2.82;;;0.00;85.90;;;-1.74;68.46;98403.03;172309;28;1236;-65
2022/03/10 00:24:26;;;;;;;8.57;2.85;;;0.00;85.70;;;-1.71;68.41;98408.97;172405;28;1636;-65
2022/03/10 00:24:32;;;;;;;8.52;2.83;;;0.00;85.70;;;-1.72;68.17;98399.41;172621;28;1303;-65
2022/03/10 00:24:39;;;;;;;8.07;2.88;;;0.00;85.70;;;-1.68;68.52;98409.75;171886;28;947;-65
2022/03/10 00:24:45;;;;;;;8.40;3.00;;;0.00;85.70;;;-1.74;68.34;98403.03;171885;28;952;-65
2022/03/10 00:24:51;;;;;;;8.43;3.05;;;0.00;85.80;;;-1.77;67.69;98412.00;172565;28;1242;-65
2022/03/10 00:24:57;;;;;;;7.18;3.00;;;0.00;85.70;;;-1.80;67.56;98420.09;172388;28;1206;-65
2022/03/10 00:25:03;;;;;;;6.80;2.90;;;0.00;85.60;;;-1.81;68.15;98410.47;171784;28;1535;-65
2022/03/10 00:25:09;;;;;;;6.38;2.83;;;0.00;85.50;;;-1.82;68.61;98410.56;172537;28;896;-65
2022/03/10 00:25:16;;;;;;;5.93;2.67;;;0.00;85.40;;;-1.81;68.49;98406.97;173170;28;958;-66
2022/03/10 00:25:22;;;;;;;6.40;2.60;;;0.00;85.20;;;-1.85;68.72;98405.44;173186;28;906;-65
2022/03/10 00:25:28;;;;;;;6.50;2.67;;;0.00;85.10;;;-1.83;68.69;98414.13;173195;28;1006;-65
2022/03/10 00:25:34;;;;;;;7.15;2.85;;;0.00;85.10;;;-1.83;68.72;98409.72;171890;28;1062;-65
2022/03/10 00:25:40;;;;;;;8.23;3.05;;;0.00;85.00;;;-1.86;68.49;98395.81;173251;28;915;-65
2022/03/10 00:25:46;;;;;;;8.23;3.20;;;0.00;85.00;;;-1.83;69.06;98408.84;173143;28;1198;-65
2022/03/10 00:25:52;;;;;;;7.05;3.10;;;0.00;84.80;;;-1.86;68.65;98409.03;173233;28;1002;-65
2022/03/10 00:25:58;;;;;;;7.00;3.08;;;0.00;84.70;;;-1.81;68.32;98406.97;172415;28;1201;-65
2022/03/10 00:26:04;;;;;;;7.05;2.95;;;0.00;84.60;;;-1.83;68.59;98409.72;173250;28;927;-65
2022/03/10 00:26:10;;;;;;;6.67;2.70;;;0.00;84.40;;;-1.82;68.69;98416.69;173267;28;1100;-65
2022/03/10 00:26:16;;;;;;;7.43;2.60;;;0.00;84.30;;;-1.80;69.10;98409.53;173846;28;994;-65
2022/03/10 00:26:22;;;;;;;8.10;2.77;;;0.00;84.40;;;-1.82;68.73;98400.00;173587;28;1330;-65
2022/03/10 00:26:28;;;;;;;8.27;2.95;;;0.10;84.50;;;-1.80;68.32;98409.53;173189;28;1525;-65
2022/03/10 00:26:34;;;;;;;7.55;2.85;;;0.10;84.50;;;-1.89;67.30;98411.84;171074;28;1350;-65
2022/03/10 00:26:42;;;;;;;7.30;2.80;;;0.10;84.50;;;-1.92;67.84;98417.31;171929;28;829;-65
2022/03/10 00:26:48;;;;;;;6.02;2.82;;;0.10;84.40;;;-1.96;68.40;98408.69;172430;28;1339;-65
2022/03/10 00:26:54;;;;;;;4.65;2.67;;;0.00;84.20;;;-1.94;68.60;98416.53;173933;28;954;-65
2022/03/10 00:27:00;;;;;;;4.45;2.47;;;0.00;84.10;;;-1.94;67.99;98416.53;173220;28;974;-65
2022/03/10 00:27:06;;;;;;;4.95;2.63;;;0.00;84.10;;;-1.93;68.23;98411.19;173143;28;793;-65
2022/03/10 00:27:12;;;;;;;5.53;2.63;;;0.00;83.90;;;-1.91;68.54;98416.34;173276;28;947;-65
2022/03/10 00:27:18;;;;;;;6.38;2.70;;;0.00;83.90;;;-1.91;68.75;98406.66;172606;28;1466;-65
2022/03/10 00:27:24;;;;;;;7.80;2.70;;;0.00;83.80;;;-1.88;68.88;98414.41;171777;28;1543;-65
2022/03/10 00:27:30;;;;;;;7.82;2.85;;;0.00;83.80;;;-1.86;68.32;98415.16;171890;28;891;-65
2022/03/10 00:27:36;;;;;;;8.07;2.85;;;0.00;83.70;;;-1.86;68.27;98411.66;172604;28;1010;-65